createdAt,value
2022-10-02T00:01:54.773Z,13.28
2022-10-02T00:07:03.215Z,13.28
2022-10-02T00:12:08.772Z,13.30
2022-10-02T00:17:29.558Z,13.33
2022-10-02T00:22:46.257Z,13.32
2022-10-02T00:28:07.776Z,13.29
2022-10-02T00:33:34.529Z,13.26
2022-10-02T00:38:58.961Z,13.22
2022-10-02T00:44:04.323Z,13.28
2022-10-02T00:49:12.776Z,13.34
2022-10-02T00:54:52.302Z,13.29
2022-10-02T01:00:07.505Z,13.28
2022-10-02T01:05:10.655Z,13.33
2022-10-02T01:10:15.130Z,13.38
2022-10-02T01:15:21.798Z,13.42
2022-10-02T01:20:34.311Z,13.45
2022-10-02T01:25:37.099Z,13.50
2022-10-02T01:30:43.128Z,13.48
2022-10-02T01:35:49.113Z,13.47
2022-10-02T01:40:51.877Z,13.46
2022-10-02T01:46:00.822Z,13.46
2022-10-02T01:51:40.724Z,13.49
2022-10-02T01:56:55.542Z,13.44
2022-10-02T02:02:18.968Z,13.41
2022-10-02T02:07:39.723Z,13.45
2022-10-02T02:12:54.176Z,13.46
2022-10-02T02:18:10.868Z,13.47
2022-10-02T02:23:20.084Z,13.42
2022-10-02T02:28:24.889Z,13.42
2022-10-02T02:33:36.195Z,13.43
2022-10-02T02:38:46.191Z,13.44
2022-10-02T02:44:03.895Z,13.48
2022-10-02T02:49:11.459Z,13.51
2022-10-02T02:54:25.920Z,13.53
2022-10-02T02:59:31.414Z,13.55
2022-10-02T03:04:33.778Z,13.66
2022-10-02T03:09:37.907Z,13.66
2022-10-02T03:15:08.349Z,13.55
2022-10-02T03:20:50.048Z,13.52
2022-10-02T03:26:04.899Z,13.52
2022-10-02T03:31:10.365Z,13.55
2022-10-02T03:36:17.885Z,13.50
2022-10-02T03:41:20.220Z,13.51
2022-10-02T03:46:22.653Z,13.46
2022-10-02T03:51:25.222Z,13.41
2022-10-02T03:56:30.687Z,13.40
2022-10-02T04:01:37.757Z,13.41
2022-10-02T04:06:51.598Z,13.44
2022-10-02T04:11:59.556Z,13.45
2022-10-02T04:17:16.780Z,13.43
2022-10-02T04:22:30.871Z,13.46
2022-10-02T04:27:45.383Z,13.51
2022-10-02T04:32:48.094Z,13.54
2022-10-02T04:38:27.503Z,13.58
2022-10-02T04:43:52.568Z,13.52
2022-10-02T04:49:12.307Z,13.56
2022-10-02T04:54:17.431Z,13.53
2022-10-02T04:59:22.579Z,13.52
2022-10-02T05:04:52.034Z,13.46
2022-10-02T05:10:05.456Z,13.47
2022-10-02T05:15:26.539Z,13.45
2022-10-02T05:20:57.754Z,13.54
2022-10-02T05:26:14.648Z,13.68
2022-10-02T05:31:46.174Z,14.08
2022-10-02T05:37:13.161Z,14.45
2022-10-02T05:42:31.155Z,14.70
2022-10-02T05:47:42.749Z,14.76
2022-10-02T05:53:01.032Z,14.83
2022-10-02T05:58:11.499Z,14.98
2022-10-02T06:03:17.483Z,14.77
2022-10-02T06:08:29.870Z,14.09
2022-10-02T06:13:56.702Z,13.78
2022-10-02T06:19:07.544Z,13.61
2022-10-02T06:24:20.444Z,13.51
2022-10-02T06:29:29.795Z,13.39
2022-10-02T06:34:32.197Z,13.26
2022-10-02T06:39:55.764Z,13.22
2022-10-02T06:45:15.966Z,13.50
2022-10-02T06:50:28.324Z,13.49
2022-10-02T06:55:43.807Z,13.64
2022-10-02T07:01:02.946Z,14.54
2022-10-02T07:06:36.013Z,15.15
2022-10-02T07:11:59.955Z,14.79
2022-10-02T07:17:18.335Z,14.33
2022-10-02T07:22:46.252Z,13.96
2022-10-02T07:28:39.801Z,13.95
2022-10-02T07:34:14.272Z,14.44
2022-10-02T07:39:22.573Z,14.53
2022-10-02T07:44:51.743Z,14.65
2022-10-02T07:50:18.271Z,15.33
2022-10-02T07:55:23.572Z,15.06
2022-10-02T08:00:30.152Z,14.75
2022-10-02T08:05:52.276Z,14.64
2022-10-02T08:11:18.432Z,14.73
2022-10-02T08:16:24.665Z,14.82
2022-10-02T08:21:28.135Z,14.75
2022-10-02T08:26:55.336Z,14.73
2022-10-02T08:31:57.739Z,14.86
2022-10-02T08:37:18.198Z,15.15
2022-10-02T08:43:14.027Z,15.43
2022-10-02T08:48:22.634Z,16.10
2022-10-02T08:53:34.539Z,16.52
2022-10-02T08:59:12.115Z,16.31
2022-10-02T09:04:38.192Z,16.38
2022-10-02T09:09:45.913Z,17.03
2022-10-02T09:14:59.007Z,16.76
2022-10-02T09:20:26.011Z,16.34
2022-10-02T09:25:48.158Z,16.37
2022-10-02T09:31:15.212Z,16.61
2022-10-02T09:36:19.047Z,16.84
2022-10-02T09:41:40.187Z,17.09
2022-10-02T09:47:19.968Z,17.30
2022-10-02T09:52:31.123Z,17.74
2022-10-02T09:57:45.176Z,17.53
2022-10-02T10:03:08.662Z,17.61
2022-10-02T10:08:35.879Z,17.75
2022-10-02T10:13:53.506Z,17.34
2022-10-02T10:19:03.202Z,16.83
2022-10-02T10:24:06.354Z,16.47
2022-10-02T10:29:24.357Z,16.35
2022-10-02T10:34:48.821Z,16.28
2022-10-02T10:40:04.094Z,16.32
2022-10-02T10:45:33.206Z,16.17
2022-10-02T10:50:54.475Z,16.01
2022-10-02T10:56:09.082Z,15.88
2022-10-02T11:01:38.975Z,15.75
2022-10-02T11:07:03.021Z,15.83
2022-10-02T11:12:17.561Z,16.00
2022-10-02T11:17:39.875Z,16.02
2022-10-02T11:23:11.541Z,16.05
2022-10-02T11:28:32.958Z,16.07
2022-10-02T11:34:08.846Z,16.05
2022-10-02T11:39:15.274Z,16.00
2022-10-02T11:44:38.874Z,15.97
2022-10-02T11:50:12.608Z,15.81
2022-10-02T11:55:22.290Z,15.78
2022-10-02T12:00:58.865Z,15.65
2022-10-02T12:06:20.163Z,15.71
2022-10-02T12:11:39.686Z,16.07
2022-10-02T12:17:19.515Z,16.09
2022-10-02T12:22:57.206Z,15.90
2022-10-02T12:28:29.523Z,15.80
2022-10-02T12:34:01.263Z,15.75
2022-10-02T12:39:32.717Z,15.36
2022-10-02T12:44:47.724Z,15.60
2022-10-02T12:50:25.796Z,15.77
2022-10-02T12:56:04.788Z,15.67
2022-10-02T13:01:44.575Z,15.51
2022-10-02T13:07:16.118Z,15.54
2022-10-02T13:12:27.331Z,15.56
2022-10-02T13:17:39.148Z,15.63
2022-10-02T13:23:15.313Z,15.70
2022-10-02T13:28:23.748Z,15.80
2022-10-02T13:34:08.130Z,15.96
2022-10-02T13:39:28.939Z,16.05
2022-10-02T13:44:51.087Z,16.00
2022-10-02T13:50:16.717Z,16.04
2022-10-02T13:55:43.023Z,15.98
2022-10-02T14:00:54.480Z,15.95
2022-10-02T14:06:13.107Z,15.94
2022-10-02T14:11:43.438Z,15.92
2022-10-02T14:17:19.710Z,15.97
2022-10-02T14:22:25.158Z,15.98
2022-10-02T14:27:48.652Z,15.85
2022-10-02T14:33:11.534Z,15.82
2022-10-02T14:39:04.020Z,15.84
2022-10-02T14:44:07.385Z,15.85
2022-10-02T14:49:32.575Z,15.69
2022-10-02T14:55:01.958Z,15.71
2022-10-02T15:00:24.547Z,15.63
2022-10-02T15:05:41.952Z,15.54
2022-10-02T15:10:49.258Z,15.55
2022-10-02T15:16:36.875Z,15.48
2022-10-02T15:21:41.866Z,15.45
2022-10-02T15:27:31.372Z,15.34
2022-10-02T15:32:55.845Z,14.83
2022-10-02T15:38:12.305Z,14.72
2022-10-02T15:43:17.359Z,14.52
2022-10-02T15:48:44.130Z,14.47
2022-10-02T15:53:51.444Z,14.48
2022-10-02T15:58:59.420Z,14.74
2022-10-02T16:04:18.280Z,14.92
2022-10-02T16:10:11.590Z,14.74
2022-10-02T16:15:29.606Z,14.72
2022-10-02T16:21:09.984Z,14.65
2022-10-02T16:26:43.200Z,14.66
2022-10-02T16:31:48.641Z,14.66
2022-10-02T16:36:53.823Z,14.66
2022-10-02T16:41:59.905Z,14.64
2022-10-02T16:47:04.965Z,14.67
2022-10-02T16:52:30.292Z,14.70
2022-10-02T16:57:51.961Z,14.71
2022-10-02T17:03:33.661Z,14.77
2022-10-02T17:08:47.855Z,14.77
2022-10-02T17:14:18.551Z,14.66
2022-10-02T17:19:23.924Z,14.58
2022-10-02T17:24:47.429Z,14.60
2022-10-02T17:30:05.201Z,14.32
2022-10-02T17:35:42.915Z,14.33
2022-10-02T17:41:15.466Z,14.37
2022-10-02T17:46:56.409Z,14.40
2022-10-02T17:52:26.849Z,14.37
2022-10-02T17:57:46.905Z,14.36
2022-10-02T18:03:23.216Z,14.43
2022-10-02T18:08:33.758Z,14.41
2022-10-02T18:13:49.420Z,14.26
2022-10-02T18:19:22.316Z,14.23
2022-10-02T18:24:39.746Z,14.23
2022-10-02T18:30:16.423Z,14.14
2022-10-02T18:35:40.548Z,14.24
2022-10-02T18:41:14.826Z,14.20
2022-10-02T18:46:26.509Z,14.07
2022-10-02T18:52:06.098Z,13.95
2022-10-02T18:57:08.450Z,13.95
2022-10-02T19:02:29.416Z,13.83
2022-10-02T19:07:42.680Z,13.99
2022-10-02T19:12:45.159Z,14.06
2022-10-02T19:17:59.149Z,14.19
2022-10-02T19:23:02.834Z,13.96
2022-10-02T19:28:06.573Z,13.81
2022-10-02T19:33:09.644Z,13.68
2022-10-02T19:38:27.733Z,13.81
2022-10-02T19:43:33.759Z,13.83
2022-10-02T19:48:36.395Z,13.96
2022-10-02T19:53:45.222Z,14.04
2022-10-02T19:58:50.877Z,14.14
2022-10-02T20:03:57.611Z,14.12
2022-10-02T20:09:17.871Z,14.18
2022-10-02T20:14:24.045Z,14.20
2022-10-02T20:19:31.178Z,14.16
2022-10-02T20:24:43.970Z,14.32
2022-10-02T20:29:53.476Z,14.27
2022-10-02T20:35:11.025Z,14.33
2022-10-02T20:40:19.186Z,14.30
2022-10-02T20:45:25.501Z,14.38
2022-10-02T20:50:28.007Z,14.38
2022-10-02T20:55:33.379Z,14.32
2022-10-02T21:01:00.295Z,14.14
2022-10-02T21:06:35.989Z,13.96
2022-10-02T21:12:03.194Z,13.75
2022-10-02T21:17:30.630Z,13.58
2022-10-02T21:22:43.186Z,13.45
2022-10-02T21:27:48.624Z,13.49
2022-10-02T21:33:12.816Z,13.58
2022-10-02T21:38:33.556Z,13.63
2022-10-02T21:43:44.940Z,13.71
2022-10-02T21:49:18.308Z,13.81
2022-10-02T21:54:58.404Z,13.84
2022-10-02T22:00:21.936Z,13.89
2022-10-02T22:06:05.579Z,13.83
2022-10-02T22:11:13.101Z,13.86
2022-10-02T22:16:30.763Z,13.94
2022-10-02T22:22:13.430Z,13.91
2022-10-02T22:27:15.858Z,14.00
2022-10-02T22:32:55.936Z,14.08
2022-10-02T22:38:14.340Z,13.96
2022-10-02T22:43:28.430Z,14.00
2022-10-02T22:48:46.027Z,14.07
2022-10-02T22:54:11.141Z,14.02
2022-10-02T22:59:19.182Z,14.05
2022-10-02T23:04:36.679Z,14.02
2022-10-02T23:10:02.805Z,14.12
2022-10-02T23:15:26.166Z,14.08
2022-10-02T23:21:02.773Z,13.86
2022-10-02T23:26:39.968Z,13.66
2022-10-02T23:32:15.071Z,13.87
2022-10-02T23:37:27.878Z,13.83
2022-10-02T23:42:47.866Z,13.74
2022-10-02T23:48:11.670Z,13.81
2022-10-02T23:53:42.033Z,13.81
2022-10-02T23:58:53.221Z,13.57
